sensor_id;sensor_type;location;lat;lon;timestamp;P1;durP1;ratioP1;P2;durP2;ratioP2
41627;SDS011;27321;50.816;6.054;2022-10-31T00:01:55;10.10;;;5.72;;
41627;SDS011;27321;50.816;6.054;2022-10-31T00:04:56;10.32;;;6.60;;
41627;SDS011;27321;50.816;6.054;2022-10-31T00:07:57;8.40;;;6.43;;
41627;SDS011;27321;50.816;6.054;2022-10-31T00:10:59;7.95;;;5.65;;
41627;SDS011;27321;50.816;6.054;2022-10-31T00:14:00;8.25;;;6.10;;
41627;SDS011;27321;50.816;6.054;2022-10-31T00:20:02;8.73;;;6.03;;
41627;SDS011;27321;50.816;6.054;2022-10-31T00:23:04;6.28;;;5.47;;
41627;SDS011;27321;50.816;6.054;2022-10-31T00:26:06;9.15;;;5.88;;
41627;SDS011;27321;50.816;6.054;2022-10-31T00:29:07;9.90;;;5.95;;
41627;SDS011;27321;50.816;6.054;2022-10-31T00:32:08;11.82;;;5.95;;
41627;SDS011;27321;50.816;6.054;2022-10-31T00:35:08;7.95;;;5.65;;
41627;SDS011;27321;50.816;6.054;2022-10-31T00:38:10;11.75;;;6.22;;
41627;SDS011;27321;50.816;6.054;2022-10-31T00:41:11;9.57;;;6.22;;
41627;SDS011;27321;50.816;6.054;2022-10-31T00:44:14;9.77;;;6.15;;
41627;SDS011;27321;50.816;6.054;2022-10-31T00:47:15;6.97;;;5.85;;
41627;SDS011;27321;50.816;6.054;2022-10-31T00:50:16;10.27;;;6.32;;
41627;SDS011;27321;50.816;6.054;2022-10-31T00:53:17;9.40;;;6.00;;
41627;SDS011;27321;50.816;6.054;2022-10-31T00:56:18;9.57;;;6.22;;
41627;SDS011;27321;50.816;6.054;2022-10-31T00:59:19;8.07;;;5.60;;
41627;SDS011;27321;50.816;6.054;2022-10-31T01:02:20;10.52;;;6.15;;
41627;SDS011;27321;50.816;6.054;2022-10-31T01:05:22;7.00;;;5.20;;
41627;SDS011;27321;50.816;6.054;2022-10-31T01:08:23;7.97;;;5.20;;
41627;SDS011;27321;50.816;6.054;2022-10-31T01:11:24;8.57;;;5.35;;
41627;SDS011;27321;50.816;6.054;2022-10-31T01:14:25;6.97;;;5.30;;
41627;SDS011;27321;50.816;6.054;2022-10-31T01:17:26;8.55;;;5.55;;
41627;SDS011;27321;50.816;6.054;2022-10-31T01:20:27;8.35;;;5.20;;
41627;SDS011;27321;50.816;6.054;2022-10-31T01:23:28;9.02;;;5.25;;
41627;SDS011;27321;50.816;6.054;2022-10-31T01:26:30;7.47;;;5.13;;
41627;SDS011;27321;50.816;6.054;2022-10-31T01:29:32;8.07;;;5.15;;
41627;SDS011;27321;50.816;6.054;2022-10-31T01:32:34;7.50;;;5.20;;
41627;SDS011;27321;50.816;6.054;2022-10-31T01:35:34;8.20;;;5.20;;
41627;SDS011;27321;50.816;6.054;2022-10-31T01:38:35;8.57;;;5.78;;
41627;SDS011;27321;50.816;6.054;2022-10-31T01:41:37;7.60;;;5.82;;
41627;SDS011;27321;50.816;6.054;2022-10-31T01:47:44;7.80;;;5.32;;
41627;SDS011;27321;50.816;6.054;2022-10-31T01:50:47;7.22;;;4.75;;
41627;SDS011;27321;50.816;6.054;2022-10-31T01:53:52;7.90;;;4.78;;
41627;SDS011;27321;50.816;6.054;2022-10-31T05:04:50;12.43;;;5.32;;
41627;SDS011;27321;50.816;6.054;2022-10-31T05:07:53;7.85;;;5.18;;
41627;SDS011;27321;50.816;6.054;2022-10-31T05:11:03;8.30;;;4.95;;
41627;SDS011;27321;50.816;6.054;2022-10-31T05:14:04;7.13;;;4.45;;
41627;SDS011;27321;50.816;6.054;2022-10-31T05:17:31;8.55;;;5.03;;
41627;SDS011;27321;50.816;6.054;2022-10-31T05:20:55;10.98;;;5.40;;
41627;SDS011;27321;50.816;6.054;2022-10-31T05:24:19;6.43;;;5.22;;
41627;SDS011;27321;50.816;6.054;2022-10-31T05:27:21;8.15;;;4.93;;
41627;SDS011;27321;50.816;6.054;2022-10-31T05:30:24;6.22;;;5.32;;
41627;SDS011;27321;50.816;6.054;2022-10-31T05:33:29;5.93;;;4.93;;
41627;SDS011;27321;50.816;6.054;2022-10-31T05:36:49;8.07;;;4.40;;
41627;SDS011;27321;50.816;6.054;2022-10-31T05:39:53;8.82;;;5.32;;
41627;SDS011;27321;50.816;6.054;2022-10-31T05:42:55;9.18;;;5.22;;
41627;SDS011;27321;50.816;6.054;2022-10-31T05:45:58;11.48;;;5.65;;
41627;SDS011;27321;50.816;6.054;2022-10-31T05:49:18;7.10;;;4.80;;
41627;SDS011;27321;50.816;6.054;2022-10-31T05:52:28;9.40;;;5.57;;
41627;SDS011;27321;50.816;6.054;2022-10-31T05:55:37;8.95;;;5.43;;
41627;SDS011;27321;50.816;6.054;2022-10-31T05:58:45;10.27;;;5.60;;
41627;SDS011;27321;50.816;6.054;2022-10-31T06:02:14;8.45;;;5.88;;
41627;SDS011;27321;50.816;6.054;2022-10-31T06:05:47;9.75;;;6.28;;
41627;SDS011;27321;50.816;6.054;2022-10-31T06:08:48;8.70;;;5.78;;
41627;SDS011;27321;50.816;6.054;2022-10-31T06:11:54;11.05;;;6.75;;
41627;SDS011;27321;50.816;6.054;2022-10-31T06:14:55;12.20;;;7.13;;
41627;SDS011;27321;50.816;6.054;2022-10-31T06:21:06;9.82;;;6.38;;
41627;SDS011;27321;50.816;6.054;2022-10-31T06:32:29;9.75;;;6.22;;
41627;SDS011;27321;50.816;6.054;2022-10-31T06:35:30;10.15;;;6.55;;
41627;SDS011;27321;50.816;6.054;2022-10-31T06:38:33;9.45;;;5.85;;
41627;SDS011;27321;50.816;6.054;2022-10-31T06:41:34;7.28;;;5.82;;
41627;SDS011;27321;50.816;6.054;2022-10-31T06:44:37;9.10;;;6.43;;
41627;SDS011;27321;50.816;6.054;2022-10-31T06:48:10;10.70;;;7.03;;
41627;SDS011;27321;50.816;6.054;2022-10-31T06:51:16;8.00;;;6.63;;
41627;SDS011;27321;50.816;6.054;2022-10-31T06:54:17;11.30;;;7.60;;
41627;SDS011;27321;50.816;6.054;2022-10-31T06:57:18;11.18;;;7.90;;
41627;SDS011;27321;50.816;6.054;2022-10-31T07:00:20;11.40;;;7.80;;
41627;SDS011;27321;50.816;6.054;2022-10-31T07:03:27;11.60;;;7.82;;
41627;SDS011;27321;50.816;6.054;2022-10-31T07:06:28;11.88;;;7.60;;
41627;SDS011;27321;50.816;6.054;2022-10-31T07:09:29;10.40;;;6.60;;
41627;SDS011;27321;50.816;6.054;2022-10-31T07:12:35;11.23;;;8.30;;
41627;SDS011;27321;50.816;6.054;2022-10-31T07:15:37;13.15;;;9.05;;
41627;SDS011;27321;50.816;6.054;2022-10-31T07:18:39;13.95;;;9.60;;
41627;SDS011;27321;50.816;6.054;2022-10-31T07:21:42;14.85;;;9.35;;
41627;SDS011;27321;50.816;6.054;2022-10-31T07:24:47;15.60;;;10.07;;
41627;SDS011;27321;50.816;6.054;2022-10-31T07:28:07;17.20;;;10.00;;
41627;SDS011;27321;50.816;6.054;2022-10-31T07:34:12;17.15;;;11.20;;
41627;SDS011;27321;50.816;6.054;2022-10-31T07:37:32;17.00;;;10.77;;
41627;SDS011;27321;50.816;6.054;2022-10-31T07:40:33;19.95;;;11.43;;
41627;SDS011;27321;50.816;6.054;2022-10-31T07:43:36;17.05;;;12.20;;
41627;SDS011;27321;50.816;6.054;2022-10-31T07:47:05;21.35;;;11.43;;
41627;SDS011;27321;50.816;6.054;2022-10-31T07:50:43;17.27;;;12.18;;
41627;SDS011;27321;50.816;6.054;2022-10-31T07:59:05;20.15;;;11.60;;
41627;SDS011;27321;50.816;6.054;2022-10-31T08:07:27;15.90;;;11.30;;
41627;SDS011;27321;50.816;6.054;2022-10-31T08:22:05;14.45;;;8.45;;
41627;SDS011;27321;50.816;6.054;2022-10-31T08:25:18;12.18;;;8.60;;
41627;SDS011;27321;50.816;6.054;2022-10-31T08:28:20;13.00;;;9.13;;
41627;SDS011;27321;50.816;6.054;2022-10-31T08:31:24;15.00;;;9.55;;
41627;SDS011;27321;50.816;6.054;2022-10-31T08:38:08;15.35;;;10.15;;
41627;SDS011;27321;50.816;6.054;2022-10-31T08:41:13;18.60;;;12.05;;
41627;SDS011;27321;50.816;6.054;2022-10-31T08:44:14;16.50;;;11.05;;
41627;SDS011;27321;50.816;6.054;2022-10-31T08:47:17;18.77;;;13.05;;
41627;SDS011;27321;50.816;6.054;2022-10-31T08:50:19;22.60;;;13.77;;
41627;SDS011;27321;50.816;6.054;2022-10-31T08:53:24;16.55;;;11.43;;
41627;SDS011;27321;50.816;6.054;2022-10-31T08:57:05;15.48;;;11.45;;
41627;SDS011;27321;50.816;6.054;2022-10-31T09:00:13;17.75;;;11.85;;
41627;SDS011;27321;50.816;6.054;2022-10-31T09:03:39;18.98;;;13.18;;
41627;SDS011;27321;50.816;6.054;2022-10-31T09:06:41;21.20;;;12.40;;
41627;SDS011;27321;50.816;6.054;2022-10-31T09:10:02;19.20;;;11.55;;
41627;SDS011;27321;50.816;6.054;2022-10-31T09:13:19;21.67;;;12.02;;
41627;SDS011;27321;50.816;6.054;2022-10-31T09:16:40;13.50;;;9.68;;
41627;SDS011;27321;50.816;6.054;2022-10-31T09:19:48;15.68;;;9.50;;
41627;SDS011;27321;50.816;6.054;2022-10-31T09:23:03;12.30;;;8.48;;
41627;SDS011;27321;50.816;6.054;2022-10-31T09:26:17;11.15;;;8.20;;
41627;SDS011;27321;50.816;6.054;2022-10-31T09:29:38;9.47;;;7.87;;
41627;SDS011;27321;50.816;6.054;2022-10-31T09:33:02;9.85;;;7.38;;
41627;SDS011;27321;50.816;6.054;2022-10-31T09:36:16;10.45;;;7.38;;
41627;SDS011;27321;50.816;6.054;2022-10-31T09:39:26;15.57;;;9.55;;
41627;SDS011;27321;50.816;6.054;2022-10-31T09:42:44;16.55;;;10.63;;
41627;SDS011;27321;50.816;6.054;2022-10-31T09:46:48;14.93;;;9.02;;
41627;SDS011;27321;50.816;6.054;2022-10-31T09:50:52;15.57;;;8.40;;
41627;SDS011;27321;50.816;6.054;2022-10-31T09:57:39;17.25;;;9.73;;
41627;SDS011;27321;50.816;6.054;2022-10-31T10:00:46;14.13;;;9.00;;
41627;SDS011;27321;50.816;6.054;2022-10-31T10:03:50;12.93;;;8.35;;
41627;SDS011;27321;50.816;6.054;2022-10-31T10:17:45;6.90;;;5.55;;
41627;SDS011;27321;50.816;6.054;2022-10-31T10:21:09;10.15;;;5.72;;
41627;SDS011;27321;50.816;6.054;2022-10-31T10:24:32;7.80;;;5.50;;
41627;SDS011;27321;50.816;6.054;2022-10-31T10:31:23;6.25;;;4.60;;
41627;SDS011;27321;50.816;6.054;2022-10-31T10:34:37;7.30;;;5.82;;
41627;SDS011;27321;50.816;6.054;2022-10-31T10:37:46;6.45;;;4.88;;
41627;SDS011;27321;50.816;6.054;2022-10-31T10:40:56;5.07;;;4.35;;
41627;SDS011;27321;50.816;6.054;2022-10-31T10:43:59;5.13;;;4.50;;
41627;SDS011;27321;50.816;6.054;2022-10-31T10:47:01;7.85;;;4.80;;
41627;SDS011;27321;50.816;6.054;2022-10-31T10:50:23;4.65;;;4.00;;
41627;SDS011;27321;50.816;6.054;2022-10-31T10:53:41;4.40;;;4.00;;
41627;SDS011;27321;50.816;6.054;2022-10-31T11:00:54;10.77;;;5.90;;
41627;SDS011;27321;50.816;6.054;2022-10-31T11:03:56;8.00;;;5.20;;
41627;SDS011;27321;50.816;6.054;2022-10-31T11:07:03;6.85;;;5.20;;
41627;SDS011;27321;50.816;6.054;2022-10-31T11:10:13;7.40;;;5.70;;
41627;SDS011;27321;50.816;6.054;2022-10-31T11:13:25;9.50;;;5.00;;
41627;SDS011;27321;50.816;6.054;2022-10-31T11:27:23;11.02;;;6.40;;
41627;SDS011;27321;50.816;6.054;2022-10-31T11:30:29;7.90;;;5.70;;
41627;SDS011;27321;50.816;6.054;2022-10-31T11:37:12;8.65;;;5.07;;
41627;SDS011;27321;50.816;6.054;2022-10-31T11:40:58;7.65;;;4.63;;
41627;SDS011;27321;50.816;6.054;2022-10-31T11:44:20;9.07;;;4.97;;
41627;SDS011;27321;50.816;6.054;2022-10-31T11:47:31;7.82;;;4.90;;
41627;SDS011;27321;50.816;6.054;2022-10-31T11:50:35;10.32;;;6.10;;
41627;SDS011;27321;50.816;6.054;2022-10-31T11:53:47;8.13;;;5.35;;
41627;SDS011;27321;50.816;6.054;2022-10-31T11:56:53;12.35;;;6.25;;
41627;SDS011;27321;50.816;6.054;2022-10-31T11:59:55;14.57;;;6.10;;
41627;SDS011;27321;50.816;6.054;2022-10-31T12:06:23;9.13;;;5.75;;
41627;SDS011;27321;50.816;6.054;2022-10-31T12:09:37;11.77;;;6.20;;
41627;SDS011;27321;50.816;6.054;2022-10-31T12:12:48;11.35;;;5.90;;
41627;SDS011;27321;50.816;6.054;2022-10-31T12:19:45;7.07;;;5.18;;
41627;SDS011;27321;50.816;6.054;2022-10-31T12:30:19;10.18;;;4.38;;
41627;SDS011;27321;50.816;6.054;2022-10-31T12:43:16;6.65;;;4.28;;
41627;SDS011;27321;50.816;6.054;2022-10-31T12:46:50;5.75;;;4.00;;
41627;SDS011;27321;50.816;6.054;2022-10-31T12:54:36;10.30;;;4.95;;
41627;SDS011;27321;50.816;6.054;2022-10-31T12:58:10;12.35;;;4.72;;
41627;SDS011;27321;50.816;6.054;2022-10-31T13:01:34;9.27;;;4.38;;
41627;SDS011;27321;50.816;6.054;2022-10-31T13:08:14;4.93;;;3.35;;
41627;SDS011;27321;50.816;6.054;2022-10-31T13:11:23;4.95;;;2.95;;
41627;SDS011;27321;50.816;6.054;2022-10-31T13:17:41;5.38;;;3.10;;
41627;SDS011;27321;50.816;6.054;2022-10-31T13:20:53;6.57;;;3.25;;
41627;SDS011;27321;50.816;6.054;2022-10-31T13:23:59;6.95;;;3.05;;
41627;SDS011;27321;50.816;6.054;2022-10-31T13:27:15;7.05;;;3.30;;
41627;SDS011;27321;50.816;6.054;2022-10-31T13:30:23;10.93;;;3.22;;
41627;SDS011;27321;50.816;6.054;2022-10-31T13:33:44;7.05;;;3.50;;
41627;SDS011;27321;50.816;6.054;2022-10-31T13:36:53;5.53;;;3.28;;
41627;SDS011;27321;50.816;6.054;2022-10-31T13:40:12;10.40;;;3.70;;
41627;SDS011;27321;50.816;6.054;2022-10-31T13:47:01;8.75;;;3.80;;
41627;SDS011;27321;50.816;6.054;2022-10-31T13:50:03;7.95;;;3.90;;
41627;SDS011;27321;50.816;6.054;2022-10-31T13:53:21;5.65;;;3.47;;
41627;SDS011;27321;50.816;6.054;2022-10-31T13:56:27;10.05;;;3.80;;
41627;SDS011;27321;50.816;6.054;2022-10-31T14:02:51;8.77;;;4.28;;
41627;SDS011;27321;50.816;6.054;2022-10-31T14:21:40;9.85;;;4.28;;
41627;SDS011;27321;50.816;6.054;2022-10-31T14:25:24;7.35;;;4.68;;
41627;SDS011;27321;50.816;6.054;2022-10-31T14:28:34;7.43;;;4.00;;
41627;SDS011;27321;50.816;6.054;2022-10-31T14:31:37;8.60;;;4.10;;
41627;SDS011;27321;50.816;6.054;2022-10-31T14:34:51;8.50;;;4.25;;
41627;SDS011;27321;50.816;6.054;2022-10-31T14:45:06;11.00;;;5.60;;
41627;SDS011;27321;50.816;6.054;2022-10-31T14:48:53;9.70;;;5.05;;
41627;SDS011;27321;50.816;6.054;2022-10-31T14:52:07;8.20;;;4.95;;
41627;SDS011;27321;50.816;6.054;2022-10-31T14:55:13;8.60;;;4.90;;
41627;SDS011;27321;50.816;6.054;2022-10-31T14:58:19;7.32;;;4.90;;
41627;SDS011;27321;50.816;6.054;2022-10-31T15:01:31;6.80;;;4.90;;
41627;SDS011;27321;50.816;6.054;2022-10-31T15:04:40;7.53;;;4.10;;
41627;SDS011;27321;50.816;6.054;2022-10-31T15:07:50;6.45;;;4.40;;
41627;SDS011;27321;50.816;6.054;2022-10-31T15:10:56;8.15;;;4.72;;
41627;SDS011;27321;50.816;6.054;2022-10-31T15:13:58;8.05;;;4.10;;
41627;SDS011;27321;50.816;6.054;2022-10-31T15:17:02;8.32;;;4.60;;
41627;SDS011;27321;50.816;6.054;2022-10-31T15:20:04;7.90;;;4.50;;
41627;SDS011;27321;50.816;6.054;2022-10-31T15:26:20;9.10;;;4.57;;
41627;SDS011;27321;50.816;6.054;2022-10-31T15:29:25;6.38;;;4.13;;
41627;SDS011;27321;50.816;6.054;2022-10-31T15:32:28;5.55;;;3.92;;
41627;SDS011;27321;50.816;6.054;2022-10-31T15:35:30;7.22;;;3.67;;
41627;SDS011;27321;50.816;6.054;2022-10-31T15:38:32;7.78;;;3.67;;
41627;SDS011;27321;50.816;6.054;2022-10-31T15:41:34;4.65;;;3.58;;
41627;SDS011;27321;50.816;6.054;2022-10-31T15:45:05;5.28;;;3.55;;
41627;SDS011;27321;50.816;6.054;2022-10-31T15:48:22;7.25;;;3.50;;
41627;SDS011;27321;50.816;6.054;2022-10-31T15:51:26;6.20;;;3.80;;
41627;SDS011;27321;50.816;6.054;2022-10-31T15:58:25;5.85;;;4.18;;
41627;SDS011;27321;50.816;6.054;2022-10-31T16:01:29;8.57;;;4.22;;
41627;SDS011;27321;50.816;6.054;2022-10-31T16:04:35;5.50;;;3.97;;
41627;SDS011;27321;50.816;6.054;2022-10-31T16:08:24;5.82;;;4.20;;
41627;SDS011;27321;50.816;6.054;2022-10-31T16:14:42;14.00;;;7.05;;
41627;SDS011;27321;50.816;6.054;2022-10-31T16:18:10;7.38;;;4.90;;
41627;SDS011;27321;50.816;6.054;2022-10-31T16:21:12;8.80;;;5.13;;
41627;SDS011;27321;50.816;6.054;2022-10-31T16:24:27;5.88;;;4.28;;
41627;SDS011;27321;50.816;6.054;2022-10-31T16:27:38;7.07;;;3.88;;
41627;SDS011;27321;50.816;6.054;2022-10-31T16:30:44;6.65;;;4.07;;
41627;SDS011;27321;50.816;6.054;2022-10-31T16:33:47;6.72;;;3.90;;
41627;SDS011;27321;50.816;6.054;2022-10-31T16:36:48;6.78;;;4.10;;
41627;SDS011;27321;50.816;6.054;2022-10-31T16:39:51;7.18;;;3.80;;
41627;SDS011;27321;50.816;6.054;2022-10-31T16:42:53;8.32;;;4.07;;
41627;SDS011;27321;50.816;6.054;2022-10-31T16:45:58;7.90;;;4.30;;
41627;SDS011;27321;50.816;6.054;2022-10-31T16:49:03;5.75;;;3.67;;
41627;SDS011;27321;50.816;6.054;2022-10-31T16:52:05;8.52;;;3.65;;
41627;SDS011;27321;50.816;6.054;2022-10-31T16:55:10;4.82;;;2.97;;
41627;SDS011;27321;50.816;6.054;2022-10-31T16:58:15;5.55;;;2.60;;
41627;SDS011;27321;50.816;6.054;2022-10-31T17:01:23;4.25;;;2.17;;
41627;SDS011;27321;50.816;6.054;2022-10-31T17:04:27;5.30;;;2.90;;
41627;SDS011;27321;50.816;6.054;2022-10-31T17:07:31;4.07;;;2.70;;
41627;SDS011;27321;50.816;6.054;2022-10-31T17:10:35;3.85;;;2.35;;
41627;SDS011;27321;50.816;6.054;2022-10-31T17:13:38;9.00;;;2.95;;
41627;SDS011;27321;50.816;6.054;2022-10-31T17:16:40;6.63;;;3.00;;
41627;SDS011;27321;50.816;6.054;2022-10-31T17:19:41;6.03;;;2.40;;
41627;SDS011;27321;50.816;6.054;2022-10-31T17:22:43;9.15;;;2.90;;
41627;SDS011;27321;50.816;6.054;2022-10-31T17:25:44;5.53;;;2.65;;
41627;SDS011;27321;50.816;6.054;2022-10-31T17:28:45;6.55;;;3.15;;
41627;SDS011;27321;50.816;6.054;2022-10-31T17:34:49;4.90;;;2.90;;
41627;SDS011;27321;50.816;6.054;2022-10-31T17:37:51;4.22;;;2.63;;
41627;SDS011;27321;50.816;6.054;2022-10-31T17:40:53;9.00;;;2.88;;
41627;SDS011;27321;50.816;6.054;2022-10-31T17:43:54;7.55;;;2.92;;
41627;SDS011;27321;50.816;6.054;2022-10-31T17:46:56;6.15;;;2.47;;
41627;SDS011;27321;50.816;6.054;2022-10-31T17:50:09;5.95;;;2.63;;
41627;SDS011;27321;50.816;6.054;2022-10-31T17:53:10;8.65;;;3.28;;
41627;SDS011;27321;50.816;6.054;2022-10-31T17:56:14;4.50;;;3.03;;
41627;SDS011;27321;50.816;6.054;2022-10-31T17:59:15;8.85;;;3.17;;
41627;SDS011;27321;50.816;6.054;2022-10-31T18:02:16;6.70;;;2.55;;
41627;SDS011;27321;50.816;6.054;2022-10-31T18:05:18;4.35;;;2.47;;
41627;SDS011;27321;50.816;6.054;2022-10-31T18:08:19;5.47;;;2.80;;
41627;SDS011;27321;50.816;6.054;2022-10-31T18:11:29;6.53;;;2.85;;
41627;SDS011;27321;50.816;6.054;2022-10-31T18:14:31;5.60;;;2.47;;
41627;SDS011;27321;50.816;6.054;2022-10-31T18:17:32;5.68;;;3.00;;
41627;SDS011;27321;50.816;6.054;2022-10-31T18:20:33;8.00;;;2.75;;
41627;SDS011;27321;50.816;6.054;2022-10-31T18:23:34;7.30;;;3.17;;
41627;SDS011;27321;50.816;6.054;2022-10-31T18:26:35;11.95;;;2.90;;
41627;SDS011;27321;50.816;6.054;2022-10-31T18:32:38;6.30;;;2.95;;
41627;SDS011;27321;50.816;6.054;2022-10-31T18:35:39;18.30;;;3.17;;
41627;SDS011;27321;50.816;6.054;2022-10-31T18:38:47;3.47;;;2.40;;
41627;SDS011;27321;50.816;6.054;2022-10-31T18:41:48;5.65;;;2.90;;
41627;SDS011;27321;50.816;6.054;2022-10-31T18:44:49;10.70;;;2.97;;
41627;SDS011;27321;50.816;6.054;2022-10-31T18:47:50;9.70;;;3.22;;
41627;SDS011;27321;50.816;6.054;2022-10-31T18:50:51;5.53;;;2.65;;
41627;SDS011;27321;50.816;6.054;2022-10-31T18:53:58;5.10;;;2.92;;
41627;SDS011;27321;50.816;6.054;2022-10-31T18:57:00;4.63;;;2.80;;
41627;SDS011;27321;50.816;6.054;2022-10-31T19:00:02;6.68;;;2.63;;
41627;SDS011;27321;50.816;6.054;2022-10-31T19:03:04;6.85;;;2.70;;
41627;SDS011;27321;50.816;6.054;2022-10-31T19:06:06;5.72;;;2.47;;
41627;SDS011;27321;50.816;6.054;2022-10-31T19:09:09;6.00;;;2.78;;
41627;SDS011;27321;50.816;6.054;2022-10-31T19:12:10;12.73;;;3.17;;
41627;SDS011;27321;50.816;6.054;2022-10-31T19:15:11;6.13;;;2.72;;
41627;SDS011;27321;50.816;6.054;2022-10-31T19:18:12;4.40;;;2.65;;
41627;SDS011;27321;50.816;6.054;2022-10-31T19:21:16;7.13;;;3.10;;
41627;SDS011;27321;50.816;6.054;2022-10-31T19:24:17;5.40;;;2.63;;
41627;SDS011;27321;50.816;6.054;2022-10-31T19:27:19;9.15;;;5.93;;
41627;SDS011;27321;50.816;6.054;2022-10-31T19:30:19;6.93;;;3.97;;
41627;SDS011;27321;50.816;6.054;2022-10-31T19:33:20;6.85;;;4.85;;
41627;SDS011;27321;50.816;6.054;2022-10-31T19:36:21;9.25;;;3.35;;
41627;SDS011;27321;50.816;6.054;2022-10-31T19:39:23;11.57;;;2.90;;
41627;SDS011;27321;50.816;6.054;2022-10-31T19:42:28;6.30;;;3.20;;
41627;SDS011;27321;50.816;6.054;2022-10-31T19:45:29;7.00;;;3.45;;
41627;SDS011;27321;50.816;6.054;2022-10-31T19:48:30;9.77;;;3.17;;
41627;SDS011;27321;50.816;6.054;2022-10-31T19:51:35;8.32;;;3.40;;
41627;SDS011;27321;50.816;6.054;2022-10-31T19:54:36;6.63;;;3.38;;
41627;SDS011;27321;50.816;6.054;2022-10-31T19:57:37;4.55;;;3.40;;
41627;SDS011;27321;50.816;6.054;2022-10-31T20:00:38;5.85;;;3.20;;
41627;SDS011;27321;50.816;6.054;2022-10-31T20:23:29;5.78;;;3.88;;
41627;SDS011;27321;50.816;6.054;2022-10-31T20:26:49;10.63;;;7.07;;
41627;SDS011;27321;50.816;6.054;2022-10-31T20:30:49;6.05;;;4.18;;
41627;SDS011;27321;50.816;6.054;2022-10-31T20:33:50;6.60;;;3.85;;
41627;SDS011;27321;50.816;6.054;2022-10-31T20:47:07;6.65;;;3.15;;
41627;SDS011;27321;50.816;6.054;2022-10-31T20:50:08;6.80;;;3.55;;
41627;SDS011;27321;50.816;6.054;2022-10-31T20:53:09;7.38;;;3.42;;
41627;SDS011;27321;50.816;6.054;2022-10-31T20:56:11;12.45;;;3.67;;
41627;SDS011;27321;50.816;6.054;2022-10-31T20:59:19;4.40;;;3.10;;
41627;SDS011;27321;50.816;6.054;2022-10-31T21:02:20;5.60;;;3.17;;
41627;SDS011;27321;50.816;6.054;2022-10-31T21:05:24;7.00;;;3.15;;
41627;SDS011;27321;50.816;6.054;2022-10-31T21:08:34;5.10;;;2.80;;
41627;SDS011;27321;50.816;6.054;2022-10-31T21:11:35;8.15;;;3.35;;
41627;SDS011;27321;50.816;6.054;2022-10-31T21:14:36;8.20;;;3.50;;
41627;SDS011;27321;50.816;6.054;2022-10-31T21:17:37;6.57;;;3.50;;
41627;SDS011;27321;50.816;6.054;2022-10-31T21:20:39;4.63;;;3.10;;
41627;SDS011;27321;50.816;6.054;2022-10-31T21:23:42;4.40;;;3.22;;
41627;SDS011;27321;50.816;6.054;2022-10-31T21:26:45;4.35;;;3.45;;
41627;SDS011;27321;50.816;6.054;2022-10-31T21:29:49;9.13;;;4.20;;
41627;SDS011;27321;50.816;6.054;2022-10-31T21:32:50;19.05;;;10.27;;
41627;SDS011;27321;50.816;6.054;2022-10-31T21:35:51;10.63;;;6.72;;
41627;SDS011;27321;50.816;6.054;2022-10-31T21:38:52;9.93;;;6.28;;
41627;SDS011;27321;50.816;6.054;2022-10-31T21:41:54;6.60;;;4.35;;
41627;SDS011;27321;50.816;6.054;2022-10-31T21:55:23;15.25;;;8.65;;
41627;SDS011;27321;50.816;6.054;2022-10-31T21:58:27;8.10;;;4.80;;
41627;SDS011;27321;50.816;6.054;2022-10-31T22:01:30;5.60;;;3.80;;
41627;SDS011;27321;50.816;6.054;2022-10-31T22:04:31;8.88;;;4.93;;
41627;SDS011;27321;50.816;6.054;2022-10-31T22:07:32;11.60;;;4.80;;
41627;SDS011;27321;50.816;6.054;2022-10-31T22:10:33;10.57;;;3.97;;
41627;SDS011;27321;50.816;6.054;2022-10-31T22:13:34;7.80;;;3.70;;
41627;SDS011;27321;50.816;6.054;2022-10-31T22:16:36;5.20;;;3.30;;
41627;SDS011;27321;50.816;6.054;2022-10-31T22:19:37;7.43;;;3.92;;
41627;SDS011;27321;50.816;6.054;2022-10-31T22:22:40;13.38;;;5.15;;
41627;SDS011;27321;50.816;6.054;2022-10-31T22:25:41;8.95;;;3.78;;
41627;SDS011;27321;50.816;6.054;2022-10-31T22:28:42;7.68;;;3.47;;
41627;SDS011;27321;50.816;6.054;2022-10-31T22:31:46;6.30;;;3.40;;
41627;SDS011;27321;50.816;6.054;2022-10-31T22:34:49;9.43;;;3.55;;
41627;SDS011;27321;50.816;6.054;2022-10-31T22:37:50;11.45;;;4.35;;
41627;SDS011;27321;50.816;6.054;2022-10-31T22:40:56;10.93;;;3.72;;
41627;SDS011;27321;50.816;6.054;2022-10-31T22:43:58;12.25;;;3.80;;
41627;SDS011;27321;50.816;6.054;2022-10-31T22:46:59;5.43;;;3.50;;
41627;SDS011;27321;50.816;6.054;2022-10-31T22:50:01;8.82;;;3.63;;
41627;SDS011;27321;50.816;6.054;2022-10-31T22:53:01;13.77;;;3.83;;
41627;SDS011;27321;50.816;6.054;2022-10-31T22:56:06;7.28;;;3.47;;
41627;SDS011;27321;50.816;6.054;2022-10-31T22:59:11;7.53;;;3.40;;
41627;SDS011;27321;50.816;6.054;2022-10-31T23:02:13;6.68;;;3.33;;
41627;SDS011;27321;50.816;6.054;2022-10-31T23:05:14;7.25;;;3.63;;
41627;SDS011;27321;50.816;6.054;2022-10-31T23:08:15;9.18;;;3.78;;
41627;SDS011;27321;50.816;6.054;2022-10-31T23:14:23;7.32;;;3.63;;
41627;SDS011;27321;50.816;6.054;2022-10-31T23:20:25;5.00;;;2.73;;
41627;SDS011;27321;50.816;6.054;2022-10-31T23:23:27;7.00;;;2.83;;
41627;SDS011;27321;50.816;6.054;2022-10-31T23:26:32;4.72;;;2.72;;
41627;SDS011;27321;50.816;6.054;2022-10-31T23:29:52;4.53;;;2.72;;
41627;SDS011;27321;50.816;6.054;2022-10-31T23:32:56;8.95;;;3.40;;
41627;SDS011;27321;50.816;6.054;2022-10-31T23:35:56;6.88;;;2.95;;
41627;SDS011;27321;50.816;6.054;2022-10-31T23:38:57;4.43;;;2.60;;
41627;SDS011;27321;50.816;6.054;2022-10-31T23:41:58;6.00;;;3.10;;
41627;SDS011;27321;50.816;6.054;2022-10-31T23:44:59;6.22;;;3.20;;
41627;SDS011;27321;50.816;6.054;2022-10-31T23:48:00;5.35;;;3.05;;
41627;SDS011;27321;50.816;6.054;2022-10-31T23:51:03;4.45;;;3.05;;
41627;SDS011;27321;50.816;6.054;2022-10-31T23:54:05;7.07;;;3.25;;
41627;SDS011;27321;50.816;6.054;2022-10-31T23:57:06;5.15;;;2.90;;
